sensor_id;sensor_type;location;lat;lon;timestamp;temperature;humidity
42365;DHT22;28498;54.400;18.566;2023-08-30T00:01:12;17.30;99.90
42365;DHT22;28498;54.400;18.566;2023-08-30T00:03:39;17.30;99.90
42365;DHT22;28498;54.400;18.566;2023-08-30T00:06:07;17.30;99.90
42365;DHT22;28498;54.400;18.566;2023-08-30T00:08:34;17.30;99.90
42365;DHT22;28498;54.400;18.566;2023-08-30T00:11:01;17.30;99.90
42365;DHT22;28498;54.400;18.566;2023-08-30T00:13:30;17.20;99.90
42365;DHT22;28498;54.400;18.566;2023-08-30T00:15:59;17.20;99.90
42365;DHT22;28498;54.400;18.566;2023-08-30T00:18:26;17.30;99.90
42365;DHT22;28498;54.400;18.566;2023-08-30T00:20:53;17.30;99.90
42365;DHT22;28498;54.400;18.566;2023-08-30T00:23:20;17.30;99.90
42365;DHT22;28498;54.400;18.566;2023-08-30T00:25:48;17.30;99.90
42365;DHT22;28498;54.400;18.566;2023-08-30T00:28:15;17.30;99.90
42365;DHT22;28498;54.400;18.566;2023-08-30T00:30:42;17.30;99.90
42365;DHT22;28498;54.400;18.566;2023-08-30T00:33:09;17.40;99.90
42365;DHT22;28498;54.400;18.566;2023-08-30T00:35:36;17.30;99.90
42365;DHT22;28498;54.400;18.566;2023-08-30T00:38:03;17.40;99.90
42365;DHT22;28498;54.400;18.566;2023-08-30T00:40:40;17.40;99.90
42365;DHT22;28498;54.400;18.566;2023-08-30T00:43:07;17.30;99.90
42365;DHT22;28498;54.400;18.566;2023-08-30T00:45:35;17.30;99.90
42365;DHT22;28498;54.400;18.566;2023-08-30T00:48:05;17.40;99.90
42365;DHT22;28498;54.400;18.566;2023-08-30T00:50:33;17.40;99.90
42365;DHT22;28498;54.400;18.566;2023-08-30T00:53:01;17.40;99.90
42365;DHT22;28498;54.400;18.566;2023-08-30T00:55:36;17.50;99.90
42365;DHT22;28498;54.400;18.566;2023-08-30T00:58:04;17.40;99.90
42365;DHT22;28498;54.400;18.566;2023-08-30T01:00:31;17.40;99.90
42365;DHT22;28498;54.400;18.566;2023-08-30T01:02:58;17.50;99.90
42365;DHT22;28498;54.400;18.566;2023-08-30T01:05:26;17.40;99.90
42365;DHT22;28498;54.400;18.566;2023-08-30T01:07:53;17.40;99.90
42365;DHT22;28498;54.400;18.566;2023-08-30T01:10:27;17.40;99.90
42365;DHT22;28498;54.400;18.566;2023-08-30T01:13:02;17.50;99.90
42365;DHT22;28498;54.400;18.566;2023-08-30T01:15:34;17.40;99.90
42365;DHT22;28498;54.400;18.566;2023-08-30T01:18:03;17.50;99.90
42365;DHT22;28498;54.400;18.566;2023-08-30T01:20:35;17.50;99.90
42365;DHT22;28498;54.400;18.566;2023-08-30T01:28:38;17.40;99.90
42365;DHT22;28498;54.400;18.566;2023-08-30T01:31:08;17.40;99.90
42365;DHT22;28498;54.400;18.566;2023-08-30T01:33:37;17.50;99.90
42365;DHT22;28498;54.400;18.566;2023-08-30T01:36:04;17.50;99.90
42365;DHT22;28498;54.400;18.566;2023-08-30T01:38:33;17.30;99.90
42365;DHT22;28498;54.400;18.566;2023-08-30T01:41:02;17.40;99.90
42365;DHT22;28498;54.400;18.566;2023-08-30T01:43:30;17.40;99.90
42365;DHT22;28498;54.400;18.566;2023-08-30T01:45:59;17.40;99.90
42365;DHT22;28498;54.400;18.566;2023-08-30T01:48:27;17.40;99.90
42365;DHT22;28498;54.400;18.566;2023-08-30T01:50:55;17.40;99.90
42365;DHT22;28498;54.400;18.566;2023-08-30T01:53:26;17.30;99.90
42365;DHT22;28498;54.400;18.566;2023-08-30T01:55:53;17.30;99.90
42365;DHT22;28498;54.400;18.566;2023-08-30T01:58:20;17.30;99.90
42365;DHT22;28498;54.400;18.566;2023-08-30T02:00:47;17.30;99.90
42365;DHT22;28498;54.400;18.566;2023-08-30T02:03:15;17.30;99.90
42365;DHT22;28498;54.400;18.566;2023-08-30T02:06:28;17.20;99.90
42365;DHT22;28498;54.400;18.566;2023-08-30T02:11:32;17.20;99.90
42365;DHT22;28498;54.400;18.566;2023-08-30T02:14:01;17.30;99.90
42365;DHT22;28498;54.400;18.566;2023-08-30T02:16:31;17.30;99.90
42365;DHT22;28498;54.400;18.566;2023-08-30T02:18:59;17.30;99.90
42365;DHT22;28498;54.400;18.566;2023-08-30T02:21:27;17.30;99.90
42365;DHT22;28498;54.400;18.566;2023-08-30T02:23:54;17.30;99.90
42365;DHT22;28498;54.400;18.566;2023-08-30T02:26:21;17.30;99.90
42365;DHT22;28498;54.400;18.566;2023-08-30T02:28:48;17.30;99.90
42365;DHT22;28498;54.400;18.566;2023-08-30T02:31:15;17.20;99.90
42365;DHT22;28498;54.400;18.566;2023-08-30T02:33:42;17.20;99.90
42365;DHT22;28498;54.400;18.566;2023-08-30T02:36:09;17.20;99.90
42365;DHT22;28498;54.400;18.566;2023-08-30T02:38:37;17.20;99.90
42365;DHT22;28498;54.400;18.566;2023-08-30T02:41:04;17.20;99.90
42365;DHT22;28498;54.400;18.566;2023-08-30T02:43:31;17.20;99.90
42365;DHT22;28498;54.400;18.566;2023-08-30T02:45:58;17.20;99.90
42365;DHT22;28498;54.400;18.566;2023-08-30T02:48:25;17.30;99.90
42365;DHT22;28498;54.400;18.566;2023-08-30T02:50:52;17.20;99.90
42365;DHT22;28498;54.400;18.566;2023-08-30T02:53:19;17.20;99.90
42365;DHT22;28498;54.400;18.566;2023-08-30T02:55:47;17.30;99.90
42365;DHT22;28498;54.400;18.566;2023-08-30T02:58:15;17.20;99.90
42365;DHT22;28498;54.400;18.566;2023-08-30T03:00:41;17.20;99.90
42365;DHT22;28498;54.400;18.566;2023-08-30T03:03:08;17.20;99.90
42365;DHT22;28498;54.400;18.566;2023-08-30T03:05:36;17.20;99.90
42365;DHT22;28498;54.400;18.566;2023-08-30T03:08:03;17.20;99.90
42365;DHT22;28498;54.400;18.566;2023-08-30T03:10:30;17.20;99.90
42365;DHT22;28498;54.400;18.566;2023-08-30T03:12:58;17.10;99.90
42365;DHT22;28498;54.400;18.566;2023-08-30T03:15:25;17.20;99.90
42365;DHT22;28498;54.400;18.566;2023-08-30T03:17:53;17.10;99.90
42365;DHT22;28498;54.400;18.566;2023-08-30T03:20:20;17.10;99.90
42365;DHT22;28498;54.400;18.566;2023-08-30T03:22:47;17.00;99.90
42365;DHT22;28498;54.400;18.566;2023-08-30T03:25:14;17.00;99.90
42365;DHT22;28498;54.400;18.566;2023-08-30T03:27:42;17.00;99.90
42365;DHT22;28498;54.400;18.566;2023-08-30T03:30:10;17.00;99.90
42365;DHT22;28498;54.400;18.566;2023-08-30T03:32:37;17.00;99.90
42365;DHT22;28498;54.400;18.566;2023-08-30T03:35:05;17.00;99.90
42365;DHT22;28498;54.400;18.566;2023-08-30T03:37:32;17.00;99.90
42365;DHT22;28498;54.400;18.566;2023-08-30T03:39:59;17.00;99.90
42365;DHT22;28498;54.400;18.566;2023-08-30T03:42:26;16.90;99.90
42365;DHT22;28498;54.400;18.566;2023-08-30T03:44:53;17.00;99.90
42365;DHT22;28498;54.400;18.566;2023-08-30T03:47:20;17.00;99.90
42365;DHT22;28498;54.400;18.566;2023-08-30T03:49:47;17.00;99.90
42365;DHT22;28498;54.400;18.566;2023-08-30T03:52:14;17.00;99.90
42365;DHT22;28498;54.400;18.566;2023-08-30T03:54:41;17.00;99.90
42365;DHT22;28498;54.400;18.566;2023-08-30T03:57:08;17.00;99.90
42365;DHT22;28498;54.400;18.566;2023-08-30T03:59:35;16.90;99.90
42365;DHT22;28498;54.400;18.566;2023-08-30T04:02:02;16.90;99.90
42365;DHT22;28498;54.400;18.566;2023-08-30T04:04:29;17.00;99.90
42365;DHT22;28498;54.400;18.566;2023-08-30T04:06:56;17.00;99.90
42365;DHT22;28498;54.400;18.566;2023-08-30T04:09:23;17.00;99.90
42365;DHT22;28498;54.400;18.566;2023-08-30T04:11:50;17.00;99.90
42365;DHT22;28498;54.400;18.566;2023-08-30T04:14:18;17.00;99.90
42365;DHT22;28498;54.400;18.566;2023-08-30T04:16:47;17.00;99.90
42365;DHT22;28498;54.400;18.566;2023-08-30T04:19:14;17.10;99.90
42365;DHT22;28498;54.400;18.566;2023-08-30T04:21:41;17.00;99.90
42365;DHT22;28498;54.400;18.566;2023-08-30T04:24:08;17.00;99.90
42365;DHT22;28498;54.400;18.566;2023-08-30T04:26:35;17.00;99.90
42365;DHT22;28498;54.400;18.566;2023-08-30T04:29:02;17.00;99.90
42365;DHT22;28498;54.400;18.566;2023-08-30T04:31:30;17.00;99.90
42365;DHT22;28498;54.400;18.566;2023-08-30T04:33:57;17.00;99.90
42365;DHT22;28498;54.400;18.566;2023-08-30T04:36:24;17.10;99.90
42365;DHT22;28498;54.400;18.566;2023-08-30T04:38:51;17.10;99.90
42365;DHT22;28498;54.400;18.566;2023-08-30T04:41:28;17.10;99.90
42365;DHT22;28498;54.400;18.566;2023-08-30T04:43:56;17.00;99.90
42365;DHT22;28498;54.400;18.566;2023-08-30T04:46:22;17.00;99.90
42365;DHT22;28498;54.400;18.566;2023-08-30T04:48:50;17.00;99.90
42365;DHT22;28498;54.400;18.566;2023-08-30T04:51:17;17.00;99.90
42365;DHT22;28498;54.400;18.566;2023-08-30T04:53:44;17.00;99.90
42365;DHT22;28498;54.400;18.566;2023-08-30T04:56:12;17.00;99.90
42365;DHT22;28498;54.400;18.566;2023-08-30T04:58:40;17.00;99.90
42365;DHT22;28498;54.400;18.566;2023-08-30T05:01:07;17.00;99.90
42365;DHT22;28498;54.400;18.566;2023-08-30T05:03:35;17.10;99.90
42365;DHT22;28498;54.400;18.566;2023-08-30T05:06:02;17.10;99.90
42365;DHT22;28498;54.400;18.566;2023-08-30T05:08:29;17.10;99.90
42365;DHT22;28498;54.400;18.566;2023-08-30T05:10:57;17.00;99.90
42365;DHT22;28498;54.400;18.566;2023-08-30T05:13:24;17.10;99.90
42365;DHT22;28498;54.400;18.566;2023-08-30T05:15:51;17.00;99.90
42365;DHT22;28498;54.400;18.566;2023-08-30T05:18:19;17.00;99.90
42365;DHT22;28498;54.400;18.566;2023-08-30T05:20:46;17.00;99.90
42365;DHT22;28498;54.400;18.566;2023-08-30T05:23:13;17.10;99.90
42365;DHT22;28498;54.400;18.566;2023-08-30T05:25:40;17.10;99.90
42365;DHT22;28498;54.400;18.566;2023-08-30T05:28:07;17.20;99.90
42365;DHT22;28498;54.400;18.566;2023-08-30T05:30:35;17.40;99.90
42365;DHT22;28498;54.400;18.566;2023-08-30T05:33:02;17.40;99.90
42365;DHT22;28498;54.400;18.566;2023-08-30T05:35:29;17.50;99.90
42365;DHT22;28498;54.400;18.566;2023-08-30T05:37:56;17.40;99.90
42365;DHT22;28498;54.400;18.566;2023-08-30T05:40:23;17.60;99.90
42365;DHT22;28498;54.400;18.566;2023-08-30T05:42:51;17.70;99.90
42365;DHT22;28498;54.400;18.566;2023-08-30T05:45:20;17.70;99.90
42365;DHT22;28498;54.400;18.566;2023-08-30T05:47:47;17.70;99.90
42365;DHT22;28498;54.400;18.566;2023-08-30T05:50:15;17.70;99.90
42365;DHT22;28498;54.400;18.566;2023-08-30T05:52:42;17.60;99.90
42365;DHT22;28498;54.400;18.566;2023-08-30T05:55:11;17.60;99.90
42365;DHT22;28498;54.400;18.566;2023-08-30T05:57:38;17.50;99.90
42365;DHT22;28498;54.400;18.566;2023-08-30T06:00:06;17.50;99.90
42365;DHT22;28498;54.400;18.566;2023-08-30T06:02:34;17.30;99.90
42365;DHT22;28498;54.400;18.566;2023-08-30T06:05:02;17.30;99.90
42365;DHT22;28498;54.400;18.566;2023-08-30T06:07:29;17.20;99.90
42365;DHT22;28498;54.400;18.566;2023-08-30T06:09:56;17.20;99.90
42365;DHT22;28498;54.400;18.566;2023-08-30T06:12:25;17.20;99.90
42365;DHT22;28498;54.400;18.566;2023-08-30T06:14:52;17.30;99.90
42365;DHT22;28498;54.400;18.566;2023-08-30T06:17:20;17.30;99.90
42365;DHT22;28498;54.400;18.566;2023-08-30T06:19:47;17.30;99.90
42365;DHT22;28498;54.400;18.566;2023-08-30T06:22:14;17.40;99.90
42365;DHT22;28498;54.400;18.566;2023-08-30T06:24:41;17.30;99.90
42365;DHT22;28498;54.400;18.566;2023-08-30T06:27:08;17.40;99.90
42365;DHT22;28498;54.400;18.566;2023-08-30T06:29:35;17.40;99.90
42365;DHT22;28498;54.400;18.566;2023-08-30T06:32:03;17.40;99.90
42365;DHT22;28498;54.400;18.566;2023-08-30T06:34:30;17.40;99.90
42365;DHT22;28498;54.400;18.566;2023-08-30T06:36:58;17.50;99.90
42365;DHT22;28498;54.400;18.566;2023-08-30T06:39:25;17.60;99.90
42365;DHT22;28498;54.400;18.566;2023-08-30T06:41:52;17.60;99.90
42365;DHT22;28498;54.400;18.566;2023-08-30T06:44:19;17.60;99.90
42365;DHT22;28498;54.400;18.566;2023-08-30T06:46:46;17.60;99.90
42365;DHT22;28498;54.400;18.566;2023-08-30T06:49:13;17.70;99.90
42365;DHT22;28498;54.400;18.566;2023-08-30T06:51:40;17.80;99.90
42365;DHT22;28498;54.400;18.566;2023-08-30T06:54:07;17.90;99.90
42365;DHT22;28498;54.400;18.566;2023-08-30T06:56:34;18.00;99.90
42365;DHT22;28498;54.400;18.566;2023-08-30T06:59:01;18.00;99.90
42365;DHT22;28498;54.400;18.566;2023-08-30T07:01:29;18.00;99.90
42365;DHT22;28498;54.400;18.566;2023-08-30T07:03:56;18.00;99.90
42365;DHT22;28498;54.400;18.566;2023-08-30T07:06:23;18.10;99.90
42365;DHT22;28498;54.400;18.566;2023-08-30T07:08:51;18.10;99.90
42365;DHT22;28498;54.400;18.566;2023-08-30T07:11:18;18.20;99.90
42365;DHT22;28498;54.400;18.566;2023-08-30T07:13:59;18.10;99.90
42365;DHT22;28498;54.400;18.566;2023-08-30T07:16:26;18.20;99.90
42365;DHT22;28498;54.400;18.566;2023-08-30T07:18:54;18.20;99.90
42365;DHT22;28498;54.400;18.566;2023-08-30T07:21:21;18.10;99.90
42365;DHT22;28498;54.400;18.566;2023-08-30T07:23:48;18.10;99.90
42365;DHT22;28498;54.400;18.566;2023-08-30T07:26:15;18.10;99.90
42365;DHT22;28498;54.400;18.566;2023-08-30T07:28:42;18.00;99.90
42365;DHT22;28498;54.400;18.566;2023-08-30T07:31:09;18.00;99.90
42365;DHT22;28498;54.400;18.566;2023-08-30T07:33:36;17.90;99.90
42365;DHT22;28498;54.400;18.566;2023-08-30T07:36:03;17.90;99.90
42365;DHT22;28498;54.400;18.566;2023-08-30T07:38:31;18.00;99.90
42365;DHT22;28498;54.400;18.566;2023-08-30T07:40:59;18.00;99.90
42365;DHT22;28498;54.400;18.566;2023-08-30T07:43:25;18.00;99.90
42365;DHT22;28498;54.400;18.566;2023-08-30T07:45:53;18.20;99.90
42365;DHT22;28498;54.400;18.566;2023-08-30T07:48:20;18.30;99.90
42365;DHT22;28498;54.400;18.566;2023-08-30T07:50:47;18.40;99.90
42365;DHT22;28498;54.400;18.566;2023-08-30T07:53:14;18.40;99.90
42365;DHT22;28498;54.400;18.566;2023-08-30T07:55:41;18.50;99.90
42365;DHT22;28498;54.400;18.566;2023-08-30T07:58:08;18.50;99.90
42365;DHT22;28498;54.400;18.566;2023-08-30T08:00:37;18.40;99.90
42365;DHT22;28498;54.400;18.566;2023-08-30T08:03:04;18.40;99.90
42365;DHT22;28498;54.400;18.566;2023-08-30T08:05:31;18.50;99.90
42365;DHT22;28498;54.400;18.566;2023-08-30T08:08:00;18.30;99.90
42365;DHT22;28498;54.400;18.566;2023-08-30T08:10:27;18.30;99.90
42365;DHT22;28498;54.400;18.566;2023-08-30T08:12:54;18.40;99.90
42365;DHT22;28498;54.400;18.566;2023-08-30T08:15:24;18.60;99.90
42365;DHT22;28498;54.400;18.566;2023-08-30T08:17:52;18.80;99.90
42365;DHT22;28498;54.400;18.566;2023-08-30T08:20:19;18.70;99.90
42365;DHT22;28498;54.400;18.566;2023-08-30T08:22:46;18.90;99.90
42365;DHT22;28498;54.400;18.566;2023-08-30T08:25:13;18.90;99.90
42365;DHT22;28498;54.400;18.566;2023-08-30T08:27:40;18.90;99.90
42365;DHT22;28498;54.400;18.566;2023-08-30T08:30:08;18.90;99.90
42365;DHT22;28498;54.400;18.566;2023-08-30T08:32:36;18.90;99.90
42365;DHT22;28498;54.400;18.566;2023-08-30T08:35:03;18.80;99.90
42365;DHT22;28498;54.400;18.566;2023-08-30T08:37:31;18.80;99.90
42365;DHT22;28498;54.400;18.566;2023-08-30T08:39:58;18.80;99.90
42365;DHT22;28498;54.400;18.566;2023-08-30T08:42:27;18.80;99.90
42365;DHT22;28498;54.400;18.566;2023-08-30T08:44:54;18.80;99.90
42365;DHT22;28498;54.400;18.566;2023-08-30T08:47:23;18.90;99.90
42365;DHT22;28498;54.400;18.566;2023-08-30T08:49:51;19.00;99.90
42365;DHT22;28498;54.400;18.566;2023-08-30T08:52:18;19.00;99.90
42365;DHT22;28498;54.400;18.566;2023-08-30T08:54:55;19.10;99.90
42365;DHT22;28498;54.400;18.566;2023-08-30T08:57:22;19.20;99.90
42365;DHT22;28498;54.400;18.566;2023-08-30T08:59:50;19.30;99.90
42365;DHT22;28498;54.400;18.566;2023-08-30T09:02:17;19.60;99.90
42365;DHT22;28498;54.400;18.566;2023-08-30T09:04:44;19.60;99.90
42365;DHT22;28498;54.400;18.566;2023-08-30T09:07:11;19.90;99.90
42365;DHT22;28498;54.400;18.566;2023-08-30T09:09:39;20.10;99.90
42365;DHT22;28498;54.400;18.566;2023-08-30T09:12:06;20.00;99.90
42365;DHT22;28498;54.400;18.566;2023-08-30T09:14:33;19.90;99.90
42365;DHT22;28498;54.400;18.566;2023-08-30T09:17:03;19.60;99.90
42365;DHT22;28498;54.400;18.566;2023-08-30T09:19:30;19.40;99.90
42365;DHT22;28498;54.400;18.566;2023-08-30T09:21:59;19.20;99.90
42365;DHT22;28498;54.400;18.566;2023-08-30T09:24:38;18.90;99.90
42365;DHT22;28498;54.400;18.566;2023-08-30T09:27:06;19.00;99.90
42365;DHT22;28498;54.400;18.566;2023-08-30T09:29:33;18.90;99.90
42365;DHT22;28498;54.400;18.566;2023-08-30T09:32:01;18.80;99.90
42365;DHT22;28498;54.400;18.566;2023-08-30T09:34:28;19.00;99.90
42365;DHT22;28498;54.400;18.566;2023-08-30T09:36:55;19.10;99.90
42365;DHT22;28498;54.400;18.566;2023-08-30T09:39:22;19.10;99.90
42365;DHT22;28498;54.400;18.566;2023-08-30T09:41:50;19.30;99.90
42365;DHT22;28498;54.400;18.566;2023-08-30T09:44:19;19.40;99.90
42365;DHT22;28498;54.400;18.566;2023-08-30T09:46:50;19.70;99.90
42365;DHT22;28498;54.400;18.566;2023-08-30T09:49:21;19.60;99.90
42365;DHT22;28498;54.400;18.566;2023-08-30T09:51:50;19.60;99.90
42365;DHT22;28498;54.400;18.566;2023-08-30T09:54:39;19.50;99.90
42365;DHT22;28498;54.400;18.566;2023-08-30T09:57:09;19.40;99.90
42365;DHT22;28498;54.400;18.566;2023-08-30T09:59:36;19.40;99.90
42365;DHT22;28498;54.400;18.566;2023-08-30T10:02:05;19.50;99.90
42365;DHT22;28498;54.400;18.566;2023-08-30T10:04:37;19.60;99.90
42365;DHT22;28498;54.400;18.566;2023-08-30T10:07:06;19.60;99.90
42365;DHT22;28498;54.400;18.566;2023-08-30T10:09:38;19.60;99.90
42365;DHT22;28498;54.400;18.566;2023-08-30T10:12:21;19.70;99.90
42365;DHT22;28498;54.400;18.566;2023-08-30T10:14:50;19.50;99.90
42365;DHT22;28498;54.400;18.566;2023-08-30T10:17:18;19.50;99.90
42365;DHT22;28498;54.400;18.566;2023-08-30T10:19:49;19.20;99.90
42365;DHT22;28498;54.400;18.566;2023-08-30T10:22:17;18.90;99.90
42365;DHT22;28498;54.400;18.566;2023-08-30T10:24:50;18.60;99.90
42365;DHT22;28498;54.400;18.566;2023-08-30T10:27:39;18.60;99.90
42365;DHT22;28498;54.400;18.566;2023-08-30T10:30:09;18.80;99.90
42365;DHT22;28498;54.400;18.566;2023-08-30T10:32:44;18.80;99.90
42365;DHT22;28498;54.400;18.566;2023-08-30T10:35:17;18.80;99.90
42365;DHT22;28498;54.400;18.566;2023-08-30T10:37:55;18.90;99.90
42365;DHT22;28498;54.400;18.566;2023-08-30T10:40:25;18.90;99.90
42365;DHT22;28498;54.400;18.566;2023-08-30T10:43:02;18.80;99.90
42365;DHT22;28498;54.400;18.566;2023-08-30T10:45:30;18.70;99.90
42365;DHT22;28498;54.400;18.566;2023-08-30T10:47:58;18.60;99.90
42365;DHT22;28498;54.400;18.566;2023-08-30T10:50:33;18.60;99.90
42365;DHT22;28498;54.400;18.566;2023-08-30T10:53:00;18.60;99.90
42365;DHT22;28498;54.400;18.566;2023-08-30T10:55:27;18.60;99.90
42365;DHT22;28498;54.400;18.566;2023-08-30T10:58:00;18.60;99.90
42365;DHT22;28498;54.400;18.566;2023-08-30T11:00:28;18.70;99.90
42365;DHT22;28498;54.400;18.566;2023-08-30T11:02:57;18.70;99.90
42365;DHT22;28498;54.400;18.566;2023-08-30T11:05:25;18.90;99.90
42365;DHT22;28498;54.400;18.566;2023-08-30T11:07:53;19.00;99.90
42365;DHT22;28498;54.400;18.566;2023-08-30T11:10:20;19.10;99.90
42365;DHT22;28498;54.400;18.566;2023-08-30T11:12:48;19.20;99.90
42365;DHT22;28498;54.400;18.566;2023-08-30T11:15:17;19.20;99.90
42365;DHT22;28498;54.400;18.566;2023-08-30T11:17:45;19.20;99.90
42365;DHT22;28498;54.400;18.566;2023-08-30T11:20:14;19.10;99.90
42365;DHT22;28498;54.400;18.566;2023-08-30T11:22:42;19.00;99.90
42365;DHT22;28498;54.400;18.566;2023-08-30T11:25:14;18.90;99.90
42365;DHT22;28498;54.400;18.566;2023-08-30T11:27:41;19.00;99.90
42365;DHT22;28498;54.400;18.566;2023-08-30T11:30:10;19.00;99.90
42365;DHT22;28498;54.400;18.566;2023-08-30T11:32:39;18.90;99.90
42365;DHT22;28498;54.400;18.566;2023-08-30T11:35:07;18.90;99.90
42365;DHT22;28498;54.400;18.566;2023-08-30T11:37:34;19.10;99.90
42365;DHT22;28498;54.400;18.566;2023-08-30T11:40:03;19.20;99.90
42365;DHT22;28498;54.400;18.566;2023-08-30T11:42:31;19.30;99.90
42365;DHT22;28498;54.400;18.566;2023-08-30T11:44:59;19.40;99.90
42365;DHT22;28498;54.400;18.566;2023-08-30T11:47:27;19.40;99.90
42365;DHT22;28498;54.400;18.566;2023-08-30T11:49:58;19.50;99.90
42365;DHT22;28498;54.400;18.566;2023-08-30T11:52:26;19.30;99.90
42365;DHT22;28498;54.400;18.566;2023-08-30T11:54:54;19.30;99.90
42365;DHT22;28498;54.400;18.566;2023-08-30T11:57:22;19.20;99.90
42365;DHT22;28498;54.400;18.566;2023-08-30T11:59:49;19.00;99.90
42365;DHT22;28498;54.400;18.566;2023-08-30T12:02:18;19.00;99.90
42365;DHT22;28498;54.400;18.566;2023-08-30T12:04:46;19.10;99.90
42365;DHT22;28498;54.400;18.566;2023-08-30T12:07:24;19.20;99.90
42365;DHT22;28498;54.400;18.566;2023-08-30T12:09:51;19.30;99.90
42365;DHT22;28498;54.400;18.566;2023-08-30T12:12:19;19.40;99.90
42365;DHT22;28498;54.400;18.566;2023-08-30T12:14:54;19.40;99.90
42365;DHT22;28498;54.400;18.566;2023-08-30T12:17:23;19.40;99.90
42365;DHT22;28498;54.400;18.566;2023-08-30T12:19:57;19.40;99.90
42365;DHT22;28498;54.400;18.566;2023-08-30T12:22:34;19.30;99.90
42365;DHT22;28498;54.400;18.566;2023-08-30T12:25:01;19.00;99.90
42365;DHT22;28498;54.400;18.566;2023-08-30T12:27:29;18.70;99.90
42365;DHT22;28498;54.400;18.566;2023-08-30T12:29:57;18.60;99.90
42365;DHT22;28498;54.400;18.566;2023-08-30T12:32:23;18.50;99.90
42365;DHT22;28498;54.400;18.566;2023-08-30T12:34:51;18.50;99.90
42365;DHT22;28498;54.400;18.566;2023-08-30T12:37:17;18.50;99.90
42365;DHT22;28498;54.400;18.566;2023-08-30T12:39:45;18.60;99.90
42365;DHT22;28498;54.400;18.566;2023-08-30T12:42:12;18.50;99.90
42365;DHT22;28498;54.400;18.566;2023-08-30T12:44:39;18.50;99.90
42365;DHT22;28498;54.400;18.566;2023-08-30T12:47:06;18.50;99.90
42365;DHT22;28498;54.400;18.566;2023-08-30T12:49:33;18.40;99.90
42365;DHT22;28498;54.400;18.566;2023-08-30T12:52:00;18.50;99.90
42365;DHT22;28498;54.400;18.566;2023-08-30T12:54:27;18.40;99.90
42365;DHT22;28498;54.400;18.566;2023-08-30T12:56:54;18.30;99.90
42365;DHT22;28498;54.400;18.566;2023-08-30T12:59:21;18.20;99.90
42365;DHT22;28498;54.400;18.566;2023-08-30T13:01:48;18.30;99.90
42365;DHT22;28498;54.400;18.566;2023-08-30T13:04:15;18.40;99.90
42365;DHT22;28498;54.400;18.566;2023-08-30T13:06:42;18.40;99.90
42365;DHT22;28498;54.400;18.566;2023-08-30T13:09:09;18.30;99.90
42365;DHT22;28498;54.400;18.566;2023-08-30T13:11:36;18.50;99.90
42365;DHT22;28498;54.400;18.566;2023-08-30T13:14:03;18.70;99.90
42365;DHT22;28498;54.400;18.566;2023-08-30T13:16:30;18.70;99.90
42365;DHT22;28498;54.400;18.566;2023-08-30T13:18:57;18.70;99.90
42365;DHT22;28498;54.400;18.566;2023-08-30T13:21:24;18.70;99.90
42365;DHT22;28498;54.400;18.566;2023-08-30T13:24:06;18.70;99.90
42365;DHT22;28498;54.400;18.566;2023-08-30T13:26:33;18.80;99.90
42365;DHT22;28498;54.400;18.566;2023-08-30T13:29:00;18.60;99.90
42365;DHT22;28498;54.400;18.566;2023-08-30T13:31:29;18.50;99.90
42365;DHT22;28498;54.400;18.566;2023-08-30T13:33:56;18.30;99.90
42365;DHT22;28498;54.400;18.566;2023-08-30T13:36:23;18.20;99.90
42365;DHT22;28498;54.400;18.566;2023-08-30T13:38:50;18.20;99.90
42365;DHT22;28498;54.400;18.566;2023-08-30T13:41:17;18.10;99.90
42365;DHT22;28498;54.400;18.566;2023-08-30T13:43:44;18.10;99.90
42365;DHT22;28498;54.400;18.566;2023-08-30T13:46:11;18.10;99.90
42365;DHT22;28498;54.400;18.566;2023-08-30T13:48:38;18.10;99.90
42365;DHT22;28498;54.400;18.566;2023-08-30T13:51:05;18.10;99.90
42365;DHT22;28498;54.400;18.566;2023-08-30T13:53:32;18.20;99.90
42365;DHT22;28498;54.400;18.566;2023-08-30T13:55:59;18.40;99.90
42365;DHT22;28498;54.400;18.566;2023-08-30T13:58:26;18.50;99.90
42365;DHT22;28498;54.400;18.566;2023-08-30T14:00:53;18.50;99.90
42365;DHT22;28498;54.400;18.566;2023-08-30T14:03:21;18.60;99.90
42365;DHT22;28498;54.400;18.566;2023-08-30T14:05:48;18.80;99.90
42365;DHT22;28498;54.400;18.566;2023-08-30T14:08:15;18.70;99.90
42365;DHT22;28498;54.400;18.566;2023-08-30T14:10:42;18.70;99.90
42365;DHT22;28498;54.400;18.566;2023-08-30T14:13:09;18.70;99.90
42365;DHT22;28498;54.400;18.566;2023-08-30T14:15:36;18.70;99.90
42365;DHT22;28498;54.400;18.566;2023-08-30T14:18:03;18.90;99.90
42365;DHT22;28498;54.400;18.566;2023-08-30T14:20:30;18.90;99.90
42365;DHT22;28498;54.400;18.566;2023-08-30T14:22:58;19.10;99.90
42365;DHT22;28498;54.400;18.566;2023-08-30T14:25:24;19.40;99.90
42365;DHT22;28498;54.400;18.566;2023-08-30T14:27:51;19.40;99.90
42365;DHT22;28498;54.400;18.566;2023-08-30T14:30:19;19.50;99.90
42365;DHT22;28498;54.400;18.566;2023-08-30T14:32:46;19.50;99.90
42365;DHT22;28498;54.400;18.566;2023-08-30T14:35:13;19.50;99.90
42365;DHT22;28498;54.400;18.566;2023-08-30T14:37:40;19.40;99.90
42365;DHT22;28498;54.400;18.566;2023-08-30T14:40:08;19.60;99.90
42365;DHT22;28498;54.400;18.566;2023-08-30T14:42:35;19.50;99.90
42365;DHT22;28498;54.400;18.566;2023-08-30T14:45:02;19.60;99.90
42365;DHT22;28498;54.400;18.566;2023-08-30T14:47:30;19.70;99.90
42365;DHT22;28498;54.400;18.566;2023-08-30T14:49:58;19.90;99.90
42365;DHT22;28498;54.400;18.566;2023-08-30T14:52:25;19.80;99.90
42365;DHT22;28498;54.400;18.566;2023-08-30T14:54:52;19.60;99.90
42365;DHT22;28498;54.400;18.566;2023-08-30T14:57:19;19.50;99.90
42365;DHT22;28498;54.400;18.566;2023-08-30T14:59:46;19.50;99.90
42365;DHT22;28498;54.400;18.566;2023-08-30T15:02:14;19.40;99.90
42365;DHT22;28498;54.400;18.566;2023-08-30T15:04:41;19.30;99.90
42365;DHT22;28498;54.400;18.566;2023-08-30T15:07:08;19.30;99.90
42365;DHT22;28498;54.400;18.566;2023-08-30T15:09:35;19.20;99.90
42365;DHT22;28498;54.400;18.566;2023-08-30T15:14:48;19.00;99.90
42365;DHT22;28498;54.400;18.566;2023-08-30T15:17:15;18.80;99.90
42365;DHT22;28498;54.400;18.566;2023-08-30T15:19:43;18.80;99.90
42365;DHT22;28498;54.400;18.566;2023-08-30T15:22:10;18.60;99.90
42365;DHT22;28498;54.400;18.566;2023-08-30T15:24:37;18.50;99.90
42365;DHT22;28498;54.400;18.566;2023-08-30T15:27:05;18.60;99.90
42365;DHT22;28498;54.400;18.566;2023-08-30T15:29:32;18.90;99.90
42365;DHT22;28498;54.400;18.566;2023-08-30T15:31:59;19.20;99.90